Time;durP1;ratioP1;P1;durP2;ratioP2;P2;SDS_P1;SDS_P2;PMS_P1;PMS_P2;Temp;Humidity;BMP_temperature;BMP_pressure;BME280_temperature;BME280_humidity;BME280_pressure;Samples;Min_cycle;Max_cycle;Signal;HPM_P1;HPM_P2
2024/03/31 00:00:14;;;;;;;;;;;;;;;14.87;52.16;98972.16;131144;1254;107982;-83
2024/03/31 00:03:40;;;;;;;;;;;;;;;14.85;52.27;98969.11;131118;1256;110092;-83
2024/03/31 00:06:46;;;;;;;;;;;;;;;14.82;52.67;98964.73;131119;1256;108838;-83
2024/03/31 00:09:49;;;;;;;;;;;;;;;14.79;52.72;98961.13;131044;1256;106812;-83
2024/03/31 00:12:53;;;;;;;;;;;;;;;14.77;52.95;98957.65;131065;1256;106696;-83
2024/03/31 00:15:57;;;;;;;;;;;;;;;14.75;52.92;98952.66;131087;1256;106678;-83
2024/03/31 00:19:01;;;;;;;;;;;;;;;14.71;53.06;98961.63;131150;1256;107006;-84
2024/03/31 00:22:05;;;;;;;;;;;;;;;14.70;53.24;98965.56;131208;1256;107212;-83
2024/03/31 00:25:09;;;;;;;;;;;;;;;14.68;53.28;98965.16;131106;1256;107934;-83
2024/03/31 00:28:13;;;;;;;;;;;;;;;14.66;53.44;98967.35;131125;1253;107735;-83
2024/03/31 00:31:17;;;;;;;;;;;;;;;14.65;53.69;98965.80;131099;1256;106992;-82
2024/03/31 00:34:24;;;;;;;;;;;;;;;14.62;53.73;98965.63;131077;1256;106326;-83
2024/03/31 00:37:28;;;;;;;;;;;;;;;14.60;53.79;98960.81;131147;1256;108204;-83
2024/03/31 00:40:32;;;;;;;;;;;;;;;14.57;53.91;98958.66;131068;1256;106548;-82
2024/03/31 00:43:35;;;;;;;;;;;;;;;14.55;54.11;98956.70;131054;1254;106851;-81
2024/03/31 00:46:39;;;;;;;;;;;;;;;14.53;54.09;98955.30;131080;1254;107853;-83
2024/03/31 00:49:43;;;;;;;;;;;;;;;14.51;54.13;98963.15;131083;1256;108093;-84
2024/03/31 00:52:47;;;;;;;;;;;;;;;14.49;54.46;98962.42;131098;1256;108385;-84
2024/03/31 00:55:50;;;;;;;;;;;;;;;14.46;54.39;98962.05;131135;1257;106920;-84
2024/03/31 00:58:54;;;;;;;;;;;;;;;14.44;54.60;98959.86;131087;1256;108816;-83
2024/03/31 01:01:58;;;;;;;;;;;;;;;14.42;54.68;98955.86;131116;1256;108843;-81
2024/03/31 01:05:02;;;;;;;;;;;;;;;14.39;54.87;98956.41;131106;1256;106487;-82
2024/03/31 01:08:06;;;;;;;;;;;;;;;14.36;54.89;98953.57;130908;1256;107439;-84
2024/03/31 01:11:10;;;;;;;;;;;;;;;14.34;55.06;98948.08;131090;1256;107756;-84
2024/03/31 01:14:15;;;;;;;;;;;;;;;14.32;55.10;98950.69;131096;1254;106718;-83
2024/03/31 01:17:19;;;;;;;;;;;;;;;14.30;55.25;98950.48;131112;1256;107699;-83
2024/03/31 01:20:23;;;;;;;;;;;;;;;14.27;55.16;98950.64;130944;1252;107786;-83
2024/03/31 01:23:29;;;;;;;;;;;;;;;14.25;55.45;98945.41;131069;1253;106165;-83
2024/03/31 01:26:33;;;;;;;;;;;;;;;14.24;55.47;98946.33;131104;1253;107703;-84
2024/03/31 01:29:37;;;;;;;;;;;;;;;14.22;55.61;98941.42;131070;1259;107686;-83
2024/03/31 01:32:41;;;;;;;;;;;;;;;14.20;55.66;98943.11;131144;1256;107719;-83
2024/03/31 01:35:44;;;;;;;;;;;;;;;14.17;55.74;98943.32;131044;1254;107342;-83
2024/03/31 01:38:48;;;;;;;;;;;;;;;14.14;55.77;98940.98;131077;1253;107709;-83
2024/03/31 01:41:52;;;;;;;;;;;;;;;14.12;55.84;98943.95;131121;1256;108445;-83
2024/03/31 01:44:56;;;;;;;;;;;;;;;14.09;56.03;98936.11;131159;1256;106598;-83
2024/03/31 01:48:00;;;;;;;;;;;;;;;14.08;56.21;98935.91;130953;1255;108691;-83
2024/03/31 01:51:04;;;;;;;;;;;;;;;14.05;56.25;98935.58;131096;1256;107534;-83
2024/03/31 01:54:08;;;;;;;;;;;;;;;14.04;56.37;98939.46;131104;1256;106363;-82
2024/03/31 01:57:12;;;;;;;;;;;;;;;14.02;56.38;98938.02;130996;1253;107744;-83
2024/03/31 02:00:16;;;;;;;;;;;;;;;14.00;56.60;98938.23;130989;1258;107664;-84
2024/03/31 02:03:22;;;;;;;;;;;;;;;13.97;56.54;98939.49;131129;1253;108853;-82
2024/03/31 02:06:26;;;;;;;;;;;;;;;13.95;56.67;98933.23;130987;1253;109483;-84
2024/03/31 02:09:30;;;;;;;;;;;;;;;13.93;56.82;98932.77;131071;1253;106822;-82
2024/03/31 02:12:34;;;;;;;;;;;;;;;13.90;56.98;98933.79;131053;1253;107390;-82
2024/03/31 02:15:38;;;;;;;;;;;;;;;13.88;57.13;98931.83;131060;1256;109030;-82
2024/03/31 02:18:42;;;;;;;;;;;;;;;13.85;57.20;98929.03;131144;1256;106919;-84
2024/03/31 02:21:46;;;;;;;;;;;;;;;13.83;57.19;98929.65;131064;1256;107868;-82
2024/03/31 02:24:50;;;;;;;;;;;;;;;13.80;57.16;98927.22;130944;1253;107732;-82
2024/03/31 02:27:54;;;;;;;;;;;;;;;13.76;57.28;98929.12;131028;1256;107948;-82
2024/03/31 02:30:58;;;;;;;;;;;;;;;13.72;57.57;98923.71;131094;1256;106284;-82
2024/03/31 02:34:02;;;;;;;;;;;;;;;13.70;57.41;98918.85;130950;1259;108564;-82
2024/03/31 02:37:06;;;;;;;;;;;;;;;13.67;57.56;98919.91;131068;1256;107651;-82
2024/03/31 02:40:10;;;;;;;;;;;;;;;13.65;57.73;98923.01;131144;1253;106898;-84
2024/03/31 02:43:15;;;;;;;;;;;;;;;13.61;57.82;98919.95;131066;1254;108146;-82
2024/03/31 02:46:20;;;;;;;;;;;;;;;13.56;57.92;98921.27;131068;1254;108694;-82
2024/03/31 02:49:23;;;;;;;;;;;;;;;13.55;58.05;98915.58;130982;1256;108792;-82
2024/03/31 02:52:27;;;;;;;;;;;;;;;13.53;58.13;98913.33;130959;1253;106618;-81
2024/03/31 02:55:31;;;;;;;;;;;;;;;13.51;58.17;98907.08;131006;1259;108693;-84
2024/03/31 02:58:35;;;;;;;;;;;;;;;13.50;58.20;98906.21;131051;1258;108630;-83
2024/03/31 03:01:39;;;;;;;;;;;;;;;13.47;58.43;98904.61;131109;1253;108493;-82
2024/03/31 03:04:43;;;;;;;;;;;;;;;13.45;58.43;98905.30;130956;1259;108698;-82
2024/03/31 03:07:46;;;;;;;;;;;;;;;13.42;58.52;98902.09;131034;1259;106850;-84
2024/03/31 03:10:53;;;;;;;;;;;;;;;13.41;58.61;98901.92;131086;1258;107554;-84
2024/03/31 03:13:57;;;;;;;;;;;;;;;13.37;58.56;98900.27;131059;1259;106386;-83
2024/03/31 03:17:05;;;;;;;;;;;;;;;13.32;58.81;98897.42;131006;1258;108686;-84
2024/03/31 03:20:09;;;;;;;;;;;;;;;13.29;58.82;98894.52;130999;1256;107722;-82
2024/03/31 03:23:13;;;;;;;;;;;;;;;13.25;59.00;98892.44;130975;1258;108705;-82
2024/03/31 03:26:17;;;;;;;;;;;;;;;13.23;59.13;98887.89;130918;1259;107108;-82
2024/03/31 03:29:21;;;;;;;;;;;;;;;13.21;59.25;98889.10;130865;1253;108067;-82
2024/03/31 03:32:25;;;;;;;;;;;;;;;13.19;59.32;98885.84;130871;1253;106624;-82
2024/03/31 03:35:30;;;;;;;;;;;;;;;13.19;59.42;98885.34;130964;1258;107813;-82
2024/03/31 03:38:35;;;;;;;;;;;;;;;13.17;59.44;98887.52;131030;1253;108574;-82
2024/03/31 03:41:39;;;;;;;;;;;;;;;13.16;59.61;98886.77;130896;1253;107447;-82
2024/03/31 03:44:43;;;;;;;;;;;;;;;13.15;59.59;98885.17;130950;1259;107631;-81
2024/03/31 03:47:48;;;;;;;;;;;;;;;13.15;59.75;98886.16;130976;1259;108677;-81
2024/03/31 03:50:52;;;;;;;;;;;;;;;13.15;59.82;98886.54;131080;1259;106572;-81
2024/03/31 03:53:55;;;;;;;;;;;;;;;13.14;59.72;98885.74;131050;1257;107530;-82
2024/03/31 03:56:59;;;;;;;;;;;;;;;13.13;59.73;98884.63;131052;1260;107692;-83
2024/03/31 04:00:04;;;;;;;;;;;;;;;13.11;59.93;98887.43;131034;1259;107858;-82
2024/03/31 04:03:09;;;;;;;;;;;;;;;13.09;59.98;98887.27;131073;1259;107367;-81
2024/03/31 04:06:12;;;;;;;;;;;;;;;13.08;60.03;98886.02;131041;1258;107739;-83
2024/03/31 04:09:16;;;;;;;;;;;;;;;13.07;60.02;98881.54;131053;1259;106772;-83
2024/03/31 04:12:20;;;;;;;;;;;;;;;13.04;60.20;98881.06;130984;1256;107863;-83
2024/03/31 04:15:24;;;;;;;;;;;;;;;13.01;60.14;98880.23;130941;1259;108643;-83
2024/03/31 04:18:28;;;;;;;;;;;;;;;12.97;60.34;98871.77;131080;1256;107634;-83
2024/03/31 04:21:32;;;;;;;;;;;;;;;12.94;60.41;98871.90;131118;1254;108128;-84
2024/03/31 04:24:35;;;;;;;;;;;;;;;12.92;60.55;98875.27;131046;1256;108284;-83
2024/03/31 04:27:39;;;;;;;;;;;;;;;12.91;60.56;98873.09;130958;1259;107800;-83
2024/03/31 04:30:44;;;;;;;;;;;;;;;12.90;60.68;98874.06;131046;1259;106632;-83
2024/03/31 04:33:47;;;;;;;;;;;;;;;12.89;60.54;98873.86;131092;1254;108677;-83
2024/03/31 04:36:52;;;;;;;;;;;;;;;12.86;60.67;98874.11;131064;1257;107506;-83
2024/03/31 04:39:57;;;;;;;;;;;;;;;12.83;60.88;98874.67;131075;1256;107527;-83
2024/03/31 04:43:01;;;;;;;;;;;;;;;12.80;60.80;98875.23;131268;1254;107423;-84
2024/03/31 04:46:08;;;;;;;;;;;;;;;12.77;60.98;98873.88;131109;1254;106789;-84
2024/03/31 04:49:13;;;;;;;;;;;;;;;12.75;60.96;98877.05;131076;1254;108697;-83
2024/03/31 04:52:17;;;;;;;;;;;;;;;12.75;61.06;98878.69;131071;1254;107498;-82
2024/03/31 04:55:21;;;;;;;;;;;;;;;12.75;61.26;98877.31;131003;1256;107636;-85
2024/03/31 04:58:26;;;;;;;;;;;;;;;12.77;61.35;98882.94;131070;1256;108677;-83
2024/03/31 05:01:30;;;;;;;;;;;;;;;12.80;61.44;98881.26;131354;1256;106519;-85
2024/03/31 05:04:34;;;;;;;;;;;;;;;12.85;61.48;98878.19;131368;1253;108766;-85
2024/03/31 05:07:37;;;;;;;;;;;;;;;12.91;61.64;98875.89;131428;1253;107603;-85
2024/03/31 05:10:41;;;;;;;;;;;;;;;13.00;61.63;98876.85;131357;1257;106782;-85
2024/03/31 05:13:45;;;;;;;;;;;;;;;13.09;61.76;98876.27;131073;1259;107668;-85
2024/03/31 05:16:52;;;;;;;;;;;;;;;13.19;61.77;98876.57;131081;1256;108785;-85
2024/03/31 05:19:56;;;;;;;;;;;;;;;13.29;62.10;98876.17;130920;1258;107539;-85
2024/03/31 05:23:00;;;;;;;;;;;;;;;13.39;62.01;98870.48;130905;1256;107715;-85
2024/03/31 05:26:04;;;;;;;;;;;;;;;13.51;61.94;98865.90;130733;1259;109235;-85
2024/03/31 05:29:08;;;;;;;;;;;;;;;13.63;61.97;98860.67;130721;1266;108505;-85
2024/03/31 05:32:11;;;;;;;;;;;;;;;13.75;61.97;98859.96;130742;1257;107443;-85
2024/03/31 05:35:22;;;;;;;;;;;;;;;13.87;62.25;98860.70;130797;1253;108713;-85
2024/03/31 05:38:26;;;;;;;;;;;;;;;13.97;62.03;98862.71;130808;1256;107680;-85
2024/03/31 05:41:43;;;;;;;;;;;;;;;14.09;61.91;98854.23;130957;1257;107726;-85
2024/03/31 05:44:46;;;;;;;;;;;;;;;14.23;62.25;98853.83;130944;1267;108823;-83
2024/03/31 05:47:50;;;;;;;;;;;;;;;14.37;62.01;98857.25;130806;1257;108787;-83
2024/03/31 05:50:54;;;;;;;;;;;;;;;14.50;61.91;98852.05;130888;1267;108382;-83
2024/03/31 05:53:59;;;;;;;;;;;;;;;14.63;62.03;98849.54;130852;1258;107998;-84
2024/03/31 05:57:03;;;;;;;;;;;;;;;14.75;61.63;98846.46;130970;1266;106940;-85
2024/03/31 06:00:08;;;;;;;;;;;;;;;14.85;61.53;98841.77;130837;1259;107706;-83
2024/03/31 06:03:17;;;;;;;;;;;;;;;14.94;61.38;98839.41;130880;1266;107723;-83
2024/03/31 06:06:21;;;;;;;;;;;;;;;15.03;61.34;98847.21;130908;1257;108753;-84
2024/03/31 06:09:25;;;;;;;;;;;;;;;15.10;61.34;98847.29;130921;1256;107752;-85
2024/03/31 06:12:31;;;;;;;;;;;;;;;15.17;61.27;98850.00;130791;1257;106398;-85
2024/03/31 06:15:35;;;;;;;;;;;;;;;15.23;61.12;98842.71;131056;1256;106482;-86
2024/03/31 06:18:39;;;;;;;;;;;;;;;15.31;61.09;98838.52;130685;1259;107709;-85
2024/03/31 06:21:43;;;;;;;;;;;;;;;15.39;60.95;98840.50;130848;1257;108512;-84
2024/03/31 06:24:48;;;;;;;;;;;;;;;15.46;60.91;98836.63;130883;1256;106574;-83
2024/03/31 06:27:51;;;;;;;;;;;;;;;15.53;60.84;98835.99;130819;1257;108311;-84
2024/03/31 06:30:55;;;;;;;;;;;;;;;15.60;60.82;98837.63;131162;1256;107100;-87
2024/03/31 06:33:59;;;;;;;;;;;;;;;15.68;60.72;98833.75;130916;1264;108938;-87
2024/03/31 06:37:04;;;;;;;;;;;;;;;15.80;60.64;98835.37;130908;1254;105619;-86
2024/03/31 06:40:08;;;;;;;;;;;;;;;15.93;60.52;98841.57;130921;1256;106524;-84
2024/03/31 06:43:12;;;;;;;;;;;;;;;16.07;60.38;98838.98;130976;1264;107060;-84
2024/03/31 06:46:16;;;;;;;;;;;;;;;16.20;60.34;98841.07;130870;1267;108736;-84
2024/03/31 06:49:20;;;;;;;;;;;;;;;16.33;60.19;98840.14;130860;1258;107719;-84
2024/03/31 06:52:26;;;;;;;;;;;;;;;16.48;60.02;98836.35;130922;1256;108637;-84
2024/03/31 06:55:30;;;;;;;;;;;;;;;16.64;59.97;98833.83;131103;1260;107659;-85
2024/03/31 06:58:34;;;;;;;;;;;;;;;16.80;59.78;98827.48;130970;1257;106260;-84
2024/03/31 07:01:38;;;;;;;;;;;;;;;16.98;59.78;98821.29;130890;1256;108660;-85
2024/03/31 07:04:42;;;;;;;;;;;;;;;17.17;59.62;98823.44;130771;1259;108820;-84
2024/03/31 07:07:46;;;;;;;;;;;;;;;17.38;59.33;98823.64;130770;1254;106391;-84
2024/03/31 07:10:50;;;;;;;;;;;;;;;17.59;59.32;98816.73;130960;1257;106865;-85
2024/03/31 07:13:54;;;;;;;;;;;;;;;17.80;58.70;98814.10;130940;1259;106680;-86
2024/03/31 07:17:01;;;;;;;;;;;;;;;18.00;58.49;98816.07;131082;1256;107265;-89
2024/03/31 07:20:06;;;;;;;;;;;;;;;18.20;58.61;98809.30;131196;1257;107581;-87
2024/03/31 07:23:11;;;;;;;;;;;;;;;18.39;58.70;98808.23;130978;1264;106448;-87
2024/03/31 07:26:15;;;;;;;;;;;;;;;18.56;58.18;98805.38;130955;1259;108712;-86
2024/03/31 07:29:18;;;;;;;;;;;;;;;18.69;57.88;98801.66;130931;1260;107867;-87
2024/03/31 07:32:22;;;;;;;;;;;;;;;18.81;57.67;98802.13;130863;1259;107854;-86
2024/03/31 07:35:27;;;;;;;;;;;;;;;18.91;57.65;98800.48;130952;1265;107886;-86
2024/03/31 07:38:30;;;;;;;;;;;;;;;19.00;57.00;98798.10;131065;1256;107739;-86
2024/03/31 07:41:35;;;;;;;;;;;;;;;19.09;56.94;98799.11;131126;1256;109119;-85
2024/03/31 07:44:38;;;;;;;;;;;;;;;19.17;56.63;98803.58;130965;1257;108728;-83
2024/03/31 07:47:42;;;;;;;;;;;;;;;19.25;55.80;98801.39;131046;1256;107728;-84
2024/03/31 07:50:46;;;;;;;;;;;;;;;19.35;55.76;98798.26;130902;1266;107552;-84
2024/03/31 07:53:50;;;;;;;;;;;;;;;19.45;55.37;98798.63;131487;1256;108353;-86
2024/03/31 07:56:53;;;;;;;;;;;;;;;19.55;55.32;98791.24;131152;1256;108679;-86
2024/03/31 07:59:57;;;;;;;;;;;;;;;19.67;55.11;98791.69;131143;1256;108726;-87
2024/03/31 08:03:01;;;;;;;;;;;;;;;19.80;54.87;98796.79;130894;1267;107156;-86
2024/03/31 08:06:06;;;;;;;;;;;;;;;19.93;54.62;98797.02;130892;1257;107862;-86
2024/03/31 08:09:09;;;;;;;;;;;;;;;20.04;54.44;98794.73;130946;1260;107620;-86
2024/03/31 08:12:13;;;;;;;;;;;;;;;20.12;54.48;98786.98;130892;1264;108725;-86
2024/03/31 08:15:17;;;;;;;;;;;;;;;20.21;54.11;98786.55;130988;1254;108359;-86
2024/03/31 08:18:21;;;;;;;;;;;;;;;20.30;53.58;98787.15;131239;1257;107908;-86
2024/03/31 08:21:25;;;;;;;;;;;;;;;20.39;53.60;98785.72;130960;1260;106415;-86
2024/03/31 08:24:28;;;;;;;;;;;;;;;20.47;53.36;98779.52;130858;1257;106720;-86
2024/03/31 08:27:32;;;;;;;;;;;;;;;20.56;53.00;98777.63;131067;1254;108733;-86
2024/03/31 08:30:37;;;;;;;;;;;;;;;20.65;53.18;98775.59;130947;1266;106924;-85
2024/03/31 08:33:41;;;;;;;;;;;;;;;20.75;53.01;98771.79;131000;1266;107764;-86
2024/03/31 08:36:44;;;;;;;;;;;;;;;20.86;52.70;98769.00;131019;1256;107935;-86
2024/03/31 08:39:48;;;;;;;;;;;;;;;20.94;52.38;98769.95;130964;1260;107786;-85
2024/03/31 08:42:56;;;;;;;;;;;;;;;21.00;52.29;98770.11;131276;1256;108722;-89
2024/03/31 08:46:00;;;;;;;;;;;;;;;21.08;52.23;98766.92;132376;1256;107896;-89
2024/03/31 08:49:04;;;;;;;;;;;;;;;21.17;51.85;98764.52;132852;1256;109463;-89
2024/03/31 08:52:08;;;;;;;;;;;;;;;21.39;51.89;98764.34;131525;1257;108608;-86
2024/03/31 08:55:13;;;;;;;;;;;;;;;21.65;51.38;98754.23;131475;1257;107716;-87
2024/03/31 08:58:17;;;;;;;;;;;;;;;21.87;51.20;98748.27;131659;1256;107380;-87
2024/03/31 09:01:21;;;;;;;;;;;;;;;22.02;51.11;98742.25;131621;1257;107783;-86
2024/03/31 09:04:25;;;;;;;;;;;;;;;22.08;50.44;98741.67;131032;1257;108746;-86
2024/03/31 09:07:31;;;;;;;;;;;;;;;22.08;50.47;98746.79;131124;1254;107716;-86
2024/03/31 09:10:36;;;;;;;;;;;;;;;22.07;50.04;98746.13;131451;1257;108716;-88
2024/03/31 09:13:39;;;;;;;;;;;;;;;22.10;49.92;98741.73;131474;1254;107833;-86
2024/03/31 09:16:46;;;;;;;;;;;;;;;22.14;49.73;98739.25;131051;1260;106026;-87
2024/03/31 09:19:50;;;;;;;;;;;;;;;22.23;49.36;98740.02;131375;1255;109048;-88
2024/03/31 09:22:55;;;;;;;;;;;;;;;22.34;49.04;98733.59;131251;1257;107736;-88
2024/03/31 09:26:00;;;;;;;;;;;;;;;22.48;48.71;98729.39;130972;1254;108687;-88
2024/03/31 09:29:03;;;;;;;;;;;;;;;22.67;48.70;98725.94;131169;1254;108733;-88
2024/03/31 09:32:11;;;;;;;;;;;;;;;22.81;47.09;98723.29;130887;1257;107779;-88
2024/03/31 09:35:14;;;;;;;;;;;;;;;22.92;47.04;98723.67;131484;1257;107475;-87
2024/03/31 09:38:18;;;;;;;;;;;;;;;23.01;46.92;98719.76;132517;1254;107497;-87
2024/03/31 09:41:22;;;;;;;;;;;;;;;23.07;46.64;98718.71;130964;1258;111187;-86
2024/03/31 09:44:26;;;;;;;;;;;;;;;23.07;46.75;98721.46;131129;1256;109060;-86
2024/03/31 09:47:33;;;;;;;;;;;;;;;23.08;45.64;98718.65;130897;1256;108614;-86
2024/03/31 09:50:42;;;;;;;;;;;;;;;23.04;44.36;98709.48;131256;1252;107538;-87
2024/03/31 09:53:49;;;;;;;;;;;;;;;23.00;44.94;98707.35;131198;1266;108513;-87
2024/03/31 09:56:57;;;;;;;;;;;;;;;22.99;45.06;98703.38;131146;1257;107718;-86
2024/03/31 10:00:03;;;;;;;;;;;;;;;23.05;44.92;98702.10;131137;1257;108698;-86
2024/03/31 10:03:14;;;;;;;;;;;;;;;23.14;44.32;98699.92;131711;1256;107336;-88
2024/03/31 10:06:19;;;;;;;;;;;;;;;23.13;42.00;98704.60;131946;1257;106673;-87
2024/03/31 10:09:23;;;;;;;;;;;;;;;23.08;42.30;98708.41;130976;1257;108794;-87
2024/03/31 10:12:28;;;;;;;;;;;;;;;23.05;41.97;98713.96;131189;1257;107928;-87
2024/03/31 10:15:32;;;;;;;;;;;;;;;23.05;42.66;98718.37;131708;1252;107391;-87
2024/03/31 10:18:37;;;;;;;;;;;;;;;23.06;42.58;98726.95;131272;1266;108513;-88
2024/03/31 10:21:42;;;;;;;;;;;;;;;23.08;42.48;98729.47;134080;1254;108685;-88
2024/03/31 10:24:48;;;;;;;;;;;;;;;23.10;42.18;98727.95;132844;1253;107654;-87
2024/03/31 10:27:52;;;;;;;;;;;;;;;23.14;42.38;98721.47;131416;1255;107258;-88
2024/03/31 10:30:56;;;;;;;;;;;;;;;23.24;42.52;98714.92;131486;1254;108804;-86
2024/03/31 10:34:00;;;;;;;;;;;;;;;23.33;42.13;98709.52;131239;1254;107134;-86
2024/03/31 10:37:04;;;;;;;;;;;;;;;23.36;41.95;98704.56;131085;1257;108468;-86
2024/03/31 10:40:12;;;;;;;;;;;;;;;23.40;42.13;98694.04;130971;1257;107557;-86
2024/03/31 10:43:16;;;;;;;;;;;;;;;23.47;42.30;98687.66;131734;1258;108610;-86
2024/03/31 10:46:20;;;;;;;;;;;;;;;23.54;42.16;98683.61;131776;1257;108836;-90
2024/03/31 10:49:35;;;;;;;;;;;;;;;23.58;41.54;98680.45;131119;1267;111528;-88
2024/03/31 10:52:39;;;;;;;;;;;;;;;23.62;40.76;98675.37;131174;1255;107444;-89
2024/03/31 10:55:46;;;;;;;;;;;;;;;23.67;41.64;98664.41;131870;1256;105944;-88
2024/03/31 10:58:50;;;;;;;;;;;;;;;23.74;41.20;98661.33;131566;1254;107530;-88
2024/03/31 11:01:57;;;;;;;;;;;;;;;23.78;41.13;98656.81;132656;1254;107247;-89
2024/03/31 11:05:04;;;;;;;;;;;;;;;23.83;41.34;98659.31;132155;1256;106926;-87
2024/03/31 11:08:10;;;;;;;;;;;;;;;23.94;40.87;98662.75;133957;1251;109015;-88
2024/03/31 11:11:14;;;;;;;;;;;;;;;23.98;41.27;98661.36;131818;1257;107511;-88
2024/03/31 11:14:17;;;;;;;;;;;;;;;24.00;40.81;98662.70;131984;1251;106690;-88
2024/03/31 11:17:21;;;;;;;;;;;;;;;24.00;40.60;98667.39;132042;1253;108638;-89
2024/03/31 11:20:28;;;;;;;;;;;;;;;24.00;40.19;98655.47;131558;1256;107165;-86
2024/03/31 11:23:32;;;;;;;;;;;;;;;23.97;39.97;98643.55;131964;1251;107568;-88
2024/03/31 11:26:37;;;;;;;;;;;;;;;24.04;40.64;98643.77;130925;1254;107743;-88
2024/03/31 11:29:42;;;;;;;;;;;;;;;24.16;40.06;98645.19;131105;1256;108780;-87
2024/03/31 11:32:46;;;;;;;;;;;;;;;24.27;39.77;98645.16;131641;1256;108679;-88
2024/03/31 11:35:50;;;;;;;;;;;;;;;24.38;40.10;98639.42;131213;1254;109282;-87
2024/03/31 11:38:54;;;;;;;;;;;;;;;24.44;39.65;98634.58;131136;1254;107834;-86
2024/03/31 11:41:58;;;;;;;;;;;;;;;24.46;39.47;98630.36;131348;1254;107573;-86
2024/03/31 11:45:03;;;;;;;;;;;;;;;24.55;39.89;98621.21;131242;1254;108064;-86
2024/03/31 11:48:07;;;;;;;;;;;;;;;24.67;40.06;98618.89;131124;1252;108456;-86
2024/03/31 11:51:12;;;;;;;;;;;;;;;24.79;39.54;98619.05;131337;1256;107794;-86
2024/03/31 11:54:16;;;;;;;;;;;;;;;24.85;38.48;98624.23;131346;1257;107864;-85
2024/03/31 11:57:19;;;;;;;;;;;;;;;24.86;38.10;98617.89;131461;1257;107641;-86
2024/03/31 12:00:23;;;;;;;;;;;;;;;24.89;38.15;98616.95;130982;1255;107690;-86
2024/03/31 12:03:27;;;;;;;;;;;;;;;24.98;37.87;98608.67;130972;1257;107729;-85
2024/03/31 12:06:31;;;;;;;;;;;;;;;25.08;37.72;98610.54;131072;1257;106493;-85
2024/03/31 12:09:35;;;;;;;;;;;;;;;25.17;36.53;98602.69;130895;1259;108763;-86
2024/03/31 12:12:39;;;;;;;;;;;;;;;25.23;37.00;98597.02;130809;1257;107729;-86
2024/03/31 12:15:43;;;;;;;;;;;;;;;25.28;36.50;98592.29;131390;1252;107692;-86
2024/03/31 12:18:47;;;;;;;;;;;;;;;25.33;36.82;98587.30;131208;1253;108262;-86
2024/03/31 12:21:51;;;;;;;;;;;;;;;25.41;36.92;98586.17;131152;1258;106974;-86
2024/03/31 12:24:55;;;;;;;;;;;;;;;25.43;36.54;98576.48;131169;1257;108638;-85
2024/03/31 12:27:59;;;;;;;;;;;;;;;25.40;36.45;98574.92;131074;1257;106399;-87
2024/03/31 12:31:03;;;;;;;;;;;;;;;25.37;36.45;98566.51;131109;1257;107984;-87
2024/03/31 12:34:07;;;;;;;;;;;;;;;25.33;36.89;98567.64;131012;1254;106930;-87
2024/03/31 12:37:11;;;;;;;;;;;;;;;25.29;36.00;98565.79;130935;1257;107844;-87
2024/03/31 12:40:15;;;;;;;;;;;;;;;25.20;35.39;98571.05;130923;1257;107243;-87
2024/03/31 12:43:24;;;;;;;;;;;;;;;25.09;35.07;98566.69;130939;1256;108829;-86
2024/03/31 12:46:28;;;;;;;;;;;;;;;25.02;34.72;98566.88;131016;1254;106980;-85
2024/03/31 12:49:33;;;;;;;;;;;;;;;24.96;34.83;98555.38;131028;1257;106812;-87
2024/03/31 12:52:37;;;;;;;;;;;;;;;24.89;34.51;98556.37;130945;1257;107252;-86
2024/03/31 12:55:41;;;;;;;;;;;;;;;24.84;34.49;98560.31;130930;1257;107350;-86
2024/03/31 12:58:46;;;;;;;;;;;;;;;24.79;34.47;98560.36;130858;1257;108759;-86
2024/03/31 13:01:50;;;;;;;;;;;;;;;24.75;34.37;98555.20;130885;1257;107605;-86
2024/03/31 13:04:54;;;;;;;;;;;;;;;24.73;34.62;98550.53;130893;1253;106710;-85
2024/03/31 13:07:58;;;;;;;;;;;;;;;24.71;34.49;98553.29;130927;1253;107757;-86
2024/03/31 13:11:02;;;;;;;;;;;;;;;24.67;33.95;98556.64;130951;1257;108930;-85
2024/03/31 13:14:06;;;;;;;;;;;;;;;24.62;34.44;98554.23;130925;1258;107599;-85
2024/03/31 13:17:09;;;;;;;;;;;;;;;24.67;34.46;98559.27;131185;1257;107227;-85
2024/03/31 13:20:14;;;;;;;;;;;;;;;24.70;34.76;98568.67;130979;1257;108453;-84
2024/03/31 13:23:20;;;;;;;;;;;;;;;24.67;34.02;98570.94;130861;1256;108560;-85
2024/03/31 13:26:24;;;;;;;;;;;;;;;24.72;34.16;98569.52;130912;1257;108738;-84
2024/03/31 13:29:27;;;;;;;;;;;;;;;24.84;33.89;98571.92;130953;1256;107608;-84
2024/03/31 13:32:31;;;;;;;;;;;;;;;24.89;33.12;98573.02;131001;1253;107982;-85
2024/03/31 13:35:35;;;;;;;;;;;;;;;24.83;32.76;98576.95;130958;1267;107567;-85
2024/03/31 13:38:39;;;;;;;;;;;;;;;24.72;32.48;98573.62;131030;1256;107296;-85
2024/03/31 13:41:42;;;;;;;;;;;;;;;24.63;32.92;98579.88;131044;1254;106679;-85
2024/03/31 13:44:46;;;;;;;;;;;;;;;24.56;32.69;98582.32;131063;1256;107540;-84
2024/03/31 13:47:50;;;;;;;;;;;;;;;24.50;32.83;98583.67;130909;1256;108725;-86
2024/03/31 13:50:54;;;;;;;;;;;;;;;24.46;32.74;98577.04;130991;1257;108448;-85
2024/03/31 13:53:57;;;;;;;;;;;;;;;24.41;32.54;98582.05;131006;1257;108380;-85
2024/03/31 13:57:01;;;;;;;;;;;;;;;24.37;32.43;98577.92;130930;1255;107736;-86
2024/03/31 14:00:06;;;;;;;;;;;;;;;24.32;32.47;98572.36;131014;1254;106617;-86
2024/03/31 14:03:16;;;;;;;;;;;;;;;24.28;32.40;98574.89;130909;1256;108703;-86
2024/03/31 14:06:20;;;;;;;;;;;;;;;24.29;32.93;98575.58;130977;1256;108541;-86
2024/03/31 14:09:25;;;;;;;;;;;;;;;24.27;32.68;98570.54;130961;1257;106717;-86
2024/03/31 14:12:28;;;;;;;;;;;;;;;24.23;32.62;98570.63;130954;1267;108748;-86
2024/03/31 14:15:34;;;;;;;;;;;;;;;24.16;32.09;98566.96;130991;1256;107627;-86
2024/03/31 14:18:37;;;;;;;;;;;;;;;24.06;32.41;98569.23;131002;1256;108341;-86
2024/03/31 14:21:42;;;;;;;;;;;;;;;23.95;32.37;98565.26;130976;1256;107673;-86
2024/03/31 14:24:45;;;;;;;;;;;;;;;23.90;32.50;98569.48;130913;1257;108190;-85
2024/03/31 14:27:49;;;;;;;;;;;;;;;23.88;32.75;98570.64;130940;1256;108562;-85
2024/03/31 14:30:59;;;;;;;;;;;;;;;23.86;32.29;98565.15;131094;1256;108343;-89
2024/03/31 14:34:04;;;;;;;;;;;;;;;23.81;32.33;98567.80;131249;1259;108456;-86
2024/03/31 14:37:07;;;;;;;;;;;;;;;23.75;32.31;98560.17;130975;1257;109109;-86
2024/03/31 14:40:12;;;;;;;;;;;;;;;23.71;31.97;98559.98;130978;1269;107552;-86
2024/03/31 14:43:16;;;;;;;;;;;;;;;23.67;32.42;98563.60;131215;1253;107639;-84
2024/03/31 14:46:19;;;;;;;;;;;;;;;23.64;32.42;98562.02;131333;1256;108746;-84
2024/03/31 14:49:23;;;;;;;;;;;;;;;23.59;32.45;98564.20;131186;1253;106644;-86
2024/03/31 14:52:27;;;;;;;;;;;;;;;23.57;32.54;98565.61;131113;1257;107781;-86
2024/03/31 14:55:31;;;;;;;;;;;;;;;23.54;32.66;98567.42;131001;1257;108163;-86
2024/03/31 14:58:35;;;;;;;;;;;;;;;23.49;32.91;98569.57;131287;1256;108439;-87
2024/03/31 15:01:39;;;;;;;;;;;;;;;23.46;32.97;98569.14;131037;1256;107907;-86
2024/03/31 15:04:43;;;;;;;;;;;;;;;23.38;32.92;98571.24;130974;1253;106760;-85
2024/03/31 15:07:46;;;;;;;;;;;;;;;23.27;33.13;98572.60;130995;1256;108734;-85
2024/03/31 15:10:50;;;;;;;;;;;;;;;23.14;33.13;98575.58;131131;1256;107950;-85
2024/03/31 15:13:54;;;;;;;;;;;;;;;23.01;33.16;98576.25;131875;1253;108682;-87
2024/03/31 15:16:58;;;;;;;;;;;;;;;22.89;33.20;98575.49;131309;1256;110341;-85
2024/03/31 15:20:03;;;;;;;;;;;;;;;22.78;33.36;98576.77;131326;1252;106325;-87
2024/03/31 15:23:07;;;;;;;;;;;;;;;22.66;33.36;98579.13;131337;1264;108817;-85
2024/03/31 15:26:10;;;;;;;;;;;;;;;22.56;33.68;98576.90;131166;1256;108632;-87
2024/03/31 15:29:14;;;;;;;;;;;;;;;22.48;33.81;98583.05;130929;1256;107796;-87
2024/03/31 15:32:18;;;;;;;;;;;;;;;22.40;33.96;98579.02;131035;1252;107301;-87
2024/03/31 15:35:23;;;;;;;;;;;;;;;22.34;33.95;98577.98;131043;1256;108286;-87